createdAt,value
2019-05-13T00:00:45.108Z,2.90
2019-05-13T00:03:13.782Z,2.35
2019-05-13T00:05:44.512Z,2.87
2019-05-13T00:08:14.007Z,2.58
2019-05-13T00:10:43.779Z,2.40
2019-05-13T00:13:14.473Z,2.40
2019-05-13T00:15:44.100Z,2.75
2019-05-13T00:18:14.156Z,2.65
2019-05-13T00:20:44.291Z,2.30
2019-05-13T00:23:14.290Z,1.82
2019-05-13T00:25:44.190Z,2.30
2019-05-13T00:28:14.432Z,2.20
2019-05-13T00:30:44.453Z,2.90
2019-05-13T00:33:13.910Z,2.33
2019-05-13T00:35:44.264Z,2.10
2019-05-13T00:38:14.091Z,2.50
2019-05-13T00:40:44.363Z,2.00
2019-05-13T00:43:14.336Z,2.60
2019-05-13T00:45:44.294Z,2.33
2019-05-13T00:48:14.383Z,2.45
2019-05-13T00:50:44.334Z,2.27
2019-05-13T00:53:13.337Z,2.40
2019-05-13T00:55:44.225Z,2.20
2019-05-13T00:58:13.998Z,2.70
2019-05-13T01:00:44.344Z,2.50
2019-05-13T01:03:14.054Z,2.40
2019-05-13T01:05:44.550Z,2.77
2019-05-13T01:08:14.592Z,2.73
2019-05-13T01:10:45.234Z,3.12
2019-05-13T01:13:13.763Z,2.63
2019-05-13T01:15:44.395Z,2.85
2019-05-13T01:18:14.218Z,2.80
2019-05-13T01:20:43.739Z,3.12
2019-05-13T01:23:14.163Z,2.83
2019-05-13T01:25:44.456Z,2.80
2019-05-13T01:28:13.477Z,2.80
2019-05-13T01:30:43.816Z,2.83
2019-05-13T01:33:14.409Z,2.63
2019-05-13T01:35:44.490Z,3.08
2019-05-13T01:38:13.478Z,3.70
2019-05-13T01:40:43.961Z,3.10
2019-05-13T01:43:14.423Z,3.13
2019-05-13T01:45:44.097Z,2.87
2019-05-13T01:48:14.100Z,3.00
2019-05-13T01:50:44.495Z,3.33
2019-05-13T01:53:14.506Z,3.40
2019-05-13T01:55:44.356Z,3.52
2019-05-13T01:58:14.658Z,3.02
2019-05-13T02:00:44.272Z,2.40
2019-05-13T02:03:14.472Z,2.07
2019-05-13T02:05:44.370Z,3.23
2019-05-13T02:08:14.286Z,2.90
2019-05-13T02:10:50.517Z,2.43
2019-05-13T02:13:18.942Z,2.70
2019-05-13T02:15:47.347Z,2.37
2019-05-13T02:18:15.740Z,2.50
2019-05-13T02:24:16.135Z,2.50
2019-05-13T02:26:44.553Z,2.73
2019-05-13T02:29:14.362Z,2.70
2019-05-13T02:31:50.858Z,2.90
2019-05-13T02:34:13.707Z,3.77
2019-05-13T02:36:43.921Z,3.22
2019-05-13T02:39:13.053Z,3.40
2019-05-13T02:41:43.167Z,3.10
2019-05-13T02:44:12.368Z,3.57
2019-05-13T02:46:44.000Z,3.03
2019-05-13T02:49:12.180Z,3.23
2019-05-13T02:51:42.987Z,3.17
2019-05-13T02:54:12.394Z,3.17
2019-05-13T02:56:42.197Z,3.00
2019-05-13T02:59:13.100Z,2.50
2019-05-13T03:01:43.186Z,3.63
2019-05-13T03:04:13.207Z,3.57
2019-05-13T03:06:43.567Z,3.33
2019-05-13T03:09:12.664Z,3.27
2019-05-13T03:11:42.355Z,3.13
2019-05-13T03:14:12.857Z,3.50
2019-05-13T03:16:57.750Z,3.47
2019-05-13T03:19:26.152Z,3.57
2019-05-13T03:21:54.554Z,3.52
2019-05-13T03:24:23.244Z,3.60
2019-05-13T03:26:53.280Z,3.40
2019-05-13T03:29:22.322Z,3.07
2019-05-13T03:31:54.830Z,3.87
2019-05-13T03:34:25.569Z,4.10
2019-05-13T03:36:57.013Z,3.70
2019-05-13T03:39:22.682Z,3.40
2019-05-13T03:41:53.646Z,3.20
2019-05-13T03:44:23.937Z,3.83
2019-05-13T03:46:54.539Z,3.70
2019-05-13T03:49:24.162Z,3.20
2019-05-13T03:51:53.452Z,4.33
2019-05-13T03:54:22.911Z,3.58
2019-05-13T03:56:53.097Z,3.47
2019-05-13T03:59:22.555Z,3.47
2019-05-13T04:01:52.542Z,3.63
2019-05-13T04:04:23.403Z,3.60
2019-05-13T04:06:53.088Z,3.57
2019-05-13T04:09:30.088Z,3.63
2019-05-13T04:11:52.638Z,3.90
2019-05-13T04:14:23.004Z,3.80
2019-05-13T04:16:53.143Z,3.60
2019-05-13T04:19:23.269Z,3.63
2019-05-13T04:21:53.008Z,4.05
2019-05-13T04:24:22.984Z,3.60
2019-05-13T04:26:53.332Z,3.37
2019-05-13T04:29:23.349Z,3.67
2019-05-13T04:31:53.225Z,3.73
2019-05-13T04:34:22.938Z,3.47
2019-05-13T04:36:52.085Z,3.20
2019-05-13T04:39:36.701Z,3.53
2019-05-13T04:41:52.906Z,3.85
2019-05-13T04:44:23.989Z,3.85
2019-05-13T04:46:52.306Z,3.83
2019-05-13T04:49:23.188Z,3.30
2019-05-13T04:51:52.355Z,3.92
2019-05-13T04:54:22.627Z,3.87
2019-05-13T04:56:52.505Z,3.50
2019-05-13T04:59:22.668Z,3.83
2019-05-13T05:02:12.788Z,3.77
2019-05-13T05:04:43.432Z,4.30
2019-05-13T05:07:32.734Z,4.03
2019-05-13T05:10:21.377Z,4.07
2019-05-13T05:13:02.343Z,4.43
2019-05-13T05:15:52.383Z,4.72
2019-05-13T05:18:32.790Z,4.40
2019-05-13T05:21:13.408Z,3.90
2019-05-13T05:23:51.505Z,4.07
2019-05-13T05:26:23.121Z,4.05
2019-05-13T05:29:03.664Z,4.27
2019-05-13T05:31:41.488Z,3.80
2019-05-13T05:34:16.220Z,3.93
2019-05-13T05:36:53.600Z,4.40
2019-05-13T05:39:23.220Z,4.17
2019-05-13T05:41:57.096Z,4.47
2019-05-13T05:44:28.427Z,3.87
2019-05-13T05:47:02.186Z,3.72
2019-05-13T05:49:31.976Z,4.10
2019-05-13T05:52:07.695Z,4.15
2019-05-13T05:54:38.552Z,4.22
2019-05-13T05:57:27.268Z,4.28
2019-05-13T05:59:56.451Z,4.60
2019-05-13T06:02:27.663Z,4.47
2019-05-13T06:04:58.009Z,3.92
2019-05-13T06:07:26.416Z,4.05
2019-05-13T06:09:54.500Z,4.20
2019-05-13T06:12:23.392Z,4.33
2019-05-13T06:14:52.430Z,3.92
2019-05-13T06:17:21.901Z,3.62
2019-05-13T06:19:51.304Z,3.77
2019-05-13T06:22:21.485Z,3.33
2019-05-13T06:24:52.021Z,3.72
2019-05-13T06:27:21.339Z,3.15
2019-05-13T06:29:52.607Z,2.98
2019-05-13T06:32:25.349Z,2.67
2019-05-13T06:34:52.467Z,3.02
2019-05-13T06:37:21.726Z,3.10
2019-05-13T06:39:51.222Z,2.58
2019-05-13T06:42:21.994Z,3.15
2019-05-13T06:44:51.366Z,3.40
2019-05-13T06:47:22.017Z,2.60
2019-05-13T06:49:51.613Z,3.12
2019-05-13T06:52:21.218Z,2.80
2019-05-13T06:54:52.063Z,2.83
2019-05-13T06:57:21.950Z,2.35
2019-05-13T06:59:52.032Z,3.12
2019-05-13T07:02:21.612Z,3.90
2019-05-13T07:04:51.654Z,2.90
2019-05-13T07:07:21.975Z,3.33
2019-05-13T07:09:51.677Z,3.20
2019-05-13T07:12:21.990Z,3.10
2019-05-13T07:14:51.798Z,2.77
2019-05-13T07:17:22.278Z,3.12
2019-05-13T07:19:51.676Z,2.12
2019-05-13T07:22:23.054Z,3.17
2019-05-13T07:24:51.892Z,2.65
2019-05-13T07:27:22.849Z,2.52
2019-05-13T07:29:51.496Z,2.15
2019-05-13T07:32:22.584Z,2.25
2019-05-13T07:34:53.193Z,2.45
2019-05-13T07:37:21.893Z,2.00
2019-05-13T07:39:56.575Z,2.12
2019-05-13T07:42:25.120Z,2.10
2019-05-13T07:44:53.551Z,1.87
2019-05-13T07:47:22.456Z,2.10
2019-05-13T07:49:51.696Z,2.47
2019-05-13T07:52:22.516Z,2.05
2019-05-13T07:55:11.956Z,2.05
2019-05-13T07:57:42.274Z,2.52
2019-05-13T08:00:12.491Z,2.40
2019-05-13T08:02:41.743Z,2.33
2019-05-13T08:05:12.056Z,2.35
2019-05-13T08:07:42.210Z,2.05
2019-05-13T08:10:11.783Z,2.00
2019-05-13T08:12:41.332Z,1.77
2019-05-13T08:15:11.952Z,2.02
2019-05-13T08:17:46.739Z,2.35
2019-05-13T08:20:12.493Z,2.30
2019-05-13T08:22:42.462Z,2.37
2019-05-13T08:25:12.571Z,1.80
2019-05-13T08:27:42.139Z,1.90
2019-05-13T08:30:11.927Z,2.10
2019-05-13T08:32:41.886Z,1.70
2019-05-13T08:35:12.519Z,1.70
2019-05-13T08:37:41.440Z,1.82
2019-05-13T08:40:12.096Z,2.08
2019-05-13T08:42:41.547Z,1.52
2019-05-13T08:45:12.061Z,1.70
2019-05-13T08:47:41.945Z,1.60
2019-05-13T08:50:12.145Z,1.52
2019-05-13T08:52:42.203Z,1.55
2019-05-13T08:55:15.510Z,1.80
2019-05-13T08:57:41.990Z,1.70
2019-05-13T09:00:13.662Z,1.25
2019-05-13T09:02:42.142Z,1.12
2019-05-13T09:05:12.008Z,1.07
2019-05-13T09:07:41.368Z,1.65
2019-05-13T09:10:12.362Z,1.37
2019-05-13T09:12:43.223Z,0.80
2019-05-13T09:15:11.834Z,1.37
2019-05-13T09:17:42.482Z,1.17
2019-05-13T09:20:11.666Z,1.07
2019-05-13T09:22:41.277Z,1.10
2019-05-13T09:25:12.342Z,0.98
2019-05-13T09:27:42.305Z,1.15
2019-05-13T09:30:11.818Z,1.22
2019-05-13T09:32:42.589Z,1.40
2019-05-13T09:35:11.968Z,0.93
2019-05-13T09:37:42.342Z,1.05
2019-05-13T09:40:11.708Z,0.88
2019-05-13T09:42:49.086Z,1.55
2019-05-13T09:45:12.303Z,0.70
2019-05-13T09:47:41.828Z,0.78
2019-05-13T09:50:27.585Z,0.88
2019-05-13T09:52:42.841Z,1.12
2019-05-13T09:55:25.308Z,0.82
2019-05-13T09:57:41.619Z,0.70
2019-05-13T10:00:12.347Z,0.85
2019-05-13T10:02:42.672Z,1.10
2019-05-13T10:05:11.533Z,0.70
2019-05-13T10:07:42.573Z,0.90
2019-05-13T10:10:11.993Z,1.22
2019-05-13T10:12:42.533Z,0.80
2019-05-13T10:15:12.577Z,0.95
2019-05-13T10:17:42.751Z,0.80
2019-05-13T10:20:13.426Z,0.88
2019-05-13T10:22:42.074Z,0.90
2019-05-13T10:25:13.760Z,0.93
2019-05-13T10:27:42.619Z,0.80
2019-05-13T10:30:12.468Z,0.70
2019-05-13T10:32:42.534Z,1.00
2019-05-13T10:35:12.634Z,0.95
2019-05-13T10:37:42.101Z,0.72
2019-05-13T10:40:11.593Z,0.70
2019-05-13T10:42:39.873Z,0.80
2019-05-13T10:45:12.418Z,0.95
2019-05-13T10:47:42.326Z,1.17
2019-05-13T10:50:10.489Z,0.90
2019-05-13T10:52:38.900Z,0.75
2019-05-13T10:55:07.868Z,0.70
2019-05-13T10:57:36.641Z,0.53
2019-05-13T11:00:12.177Z,0.68
2019-05-13T11:02:42.422Z,0.90
2019-05-13T11:05:12.274Z,0.70
2019-05-13T11:07:42.121Z,1.07
2019-05-13T11:10:13.379Z,0.90
2019-05-13T11:12:41.858Z,1.02
2019-05-13T11:15:10.761Z,1.00
2019-05-13T11:17:39.152Z,0.90
2019-05-13T11:20:07.714Z,0.70
2019-05-13T11:22:36.117Z,1.10
2019-05-13T11:25:06.388Z,1.22
2019-05-13T11:27:34.789Z,1.10
2019-05-13T11:30:06.436Z,0.70
2019-05-13T11:32:34.894Z,1.00
2019-05-13T11:35:07.645Z,1.00
2019-05-13T11:37:35.727Z,1.12
2019-05-13T11:40:06.477Z,0.70
2019-05-13T11:42:34.893Z,1.00
2019-05-13T11:45:04.473Z,0.90
2019-05-13T11:47:32.883Z,1.10
2019-05-13T11:50:02.321Z,0.95
2019-05-13T11:52:31.724Z,0.80
2019-05-13T11:55:02.561Z,1.10
2019-05-13T11:57:31.579Z,1.25
2019-05-13T12:00:02.652Z,0.80
2019-05-13T12:02:32.702Z,1.10
2019-05-13T12:05:03.882Z,1.00
2019-05-13T12:07:32.921Z,0.85
2019-05-13T12:10:02.629Z,1.00
2019-05-13T12:12:34.424Z,1.07
2019-05-13T12:15:27.682Z,1.00
2019-05-13T12:17:34.025Z,1.40
2019-05-13T12:20:02.996Z,1.27
2019-05-13T12:22:31.536Z,1.12
2019-05-13T12:25:02.048Z,1.02
2019-05-13T12:27:31.679Z,1.37
2019-05-13T12:30:02.770Z,0.90
2019-05-13T12:32:32.286Z,1.00
2019-05-13T12:35:03.252Z,1.10
2019-05-13T12:37:33.520Z,1.17
2019-05-13T12:40:02.891Z,1.17
2019-05-13T12:42:33.795Z,1.10
2019-05-13T12:45:09.008Z,1.02
2019-05-13T12:47:30.342Z,1.12
2019-05-13T12:49:58.439Z,0.90
2019-05-13T12:52:26.525Z,1.10
2019-05-13T12:54:55.326Z,0.90
2019-05-13T12:57:23.479Z,1.10
2019-05-13T12:59:51.886Z,0.85
2019-05-13T13:02:22.646Z,1.20
2019-05-13T13:05:09.016Z,1.20
2019-05-13T13:07:21.605Z,1.12
2019-05-13T13:09:53.527Z,0.93
2019-05-13T13:12:33.424Z,1.40
2019-05-13T13:14:54.386Z,0.90
2019-05-13T13:17:24.113Z,1.50
2019-05-13T13:19:54.706Z,1.37
2019-05-13T13:22:25.369Z,0.80
2019-05-13T13:24:56.535Z,0.70
2019-05-13T13:30:02.456Z,0.85
2019-05-13T13:32:24.753Z,0.80
2019-05-13T13:34:54.705Z,0.80
2019-05-13T13:37:22.598Z,0.82
2019-05-13T13:39:55.092Z,1.20
2019-05-13T13:42:21.024Z,0.98
2019-05-13T13:44:53.852Z,1.00
2019-05-13T13:47:24.236Z,1.00
2019-05-13T13:49:53.460Z,1.07
2019-05-13T13:52:22.785Z,0.93
2019-05-13T13:55:02.151Z,1.00
2019-05-13T13:57:25.698Z,1.20
2019-05-13T14:02:25.063Z,1.45
2019-05-13T14:04:54.128Z,1.20
2019-05-13T14:07:09.350Z,1.22
2019-05-13T14:07:31.302Z,0.70
2019-05-13T14:09:51.984Z,0.80
2019-05-13T14:12:22.002Z,0.90
2019-05-13T14:14:52.089Z,0.85
2019-05-13T14:17:21.965Z,0.80
2019-05-13T14:19:52.358Z,0.90
2019-05-13T14:22:21.716Z,0.80
2019-05-13T14:24:51.825Z,0.85
2019-05-13T14:27:22.381Z,0.72
2019-05-13T14:29:52.632Z,1.10
2019-05-13T14:32:22.486Z,1.05
2019-05-13T14:34:52.777Z,0.80
2019-05-13T14:37:22.360Z,0.80
2019-05-13T14:39:50.681Z,0.60
2019-05-13T14:42:18.768Z,0.70
2019-05-13T14:44:47.452Z,0.82
2019-05-13T14:47:15.527Z,0.55
2019-05-13T14:49:44.008Z,0.70
2019-05-13T14:52:12.432Z,0.68
2019-05-13T14:54:42.018Z,1.00
2019-05-13T14:57:12.608Z,0.72
2019-05-13T14:59:41.496Z,0.90
2019-05-13T15:02:11.909Z,0.60
2019-05-13T15:04:41.923Z,0.70
2019-05-13T15:07:11.698Z,0.70
2019-05-13T15:09:42.035Z,0.98
2019-05-13T15:12:09.725Z,0.50
2019-05-13T15:14:40.081Z,0.70
2019-05-13T15:17:07.962Z,0.72
2019-05-13T15:19:36.125Z,0.80
2019-05-13T15:22:04.977Z,0.70
2019-05-13T15:24:33.561Z,0.68
2019-05-13T15:27:02.026Z,0.68
2019-05-13T15:29:31.298Z,0.60
2019-05-13T15:32:02.153Z,0.80
2019-05-13T15:34:31.771Z,0.65
2019-05-13T15:37:01.974Z,0.70
2019-05-13T15:39:31.593Z,0.93
2019-05-13T15:42:01.906Z,0.70
2019-05-13T15:44:32.439Z,0.60
2019-05-13T15:47:03.848Z,0.70
2019-05-13T15:49:32.370Z,0.50
2019-05-13T15:52:01.912Z,0.60
2019-05-13T15:54:32.525Z,0.78
2019-05-13T15:57:01.932Z,0.70
2019-05-13T15:59:30.081Z,0.72
2019-05-13T16:01:58.500Z,0.55
2019-05-13T16:04:26.912Z,0.60
2019-05-13T16:06:55.326Z,0.57
2019-05-13T16:09:23.749Z,0.70
2019-05-13T16:11:52.275Z,0.45
2019-05-13T16:14:21.981Z,0.50
2019-05-13T16:16:50.728Z,0.70
2019-05-13T16:19:19.147Z,0.60
2019-05-13T16:21:47.647Z,0.33
2019-05-13T16:24:16.048Z,0.50
2019-05-13T16:26:44.469Z,0.50
2019-05-13T16:29:12.789Z,0.60
2019-05-13T16:31:41.748Z,0.62
2019-05-13T16:34:11.154Z,0.72
2019-05-13T16:36:42.927Z,0.88
2019-05-13T16:39:12.326Z,0.53
2019-05-13T16:41:42.662Z,0.40
2019-05-13T16:44:11.962Z,0.70
2019-05-13T16:46:42.557Z,0.68
2019-05-13T16:49:12.070Z,0.72
2019-05-13T16:51:42.723Z,0.60
2019-05-13T16:54:10.849Z,0.47
2019-05-13T16:56:41.813Z,0.55
2019-05-13T16:59:09.065Z,0.50
2019-05-13T17:01:37.558Z,0.57
2019-05-13T17:04:05.954Z,0.40
2019-05-13T17:06:34.365Z,0.50
2019-05-13T17:09:02.940Z,0.42
2019-05-13T17:11:32.977Z,0.65
2019-05-13T17:14:02.374Z,0.90
2019-05-13T17:16:31.730Z,0.60
2019-05-13T17:19:01.385Z,0.70
2019-05-13T17:21:31.649Z,0.37
2019-05-13T17:24:01.530Z,0.37
2019-05-13T17:26:29.933Z,0.50
2019-05-13T17:28:58.328Z,0.45
2019-05-13T17:31:26.818Z,0.50
2019-05-13T17:33:57.937Z,0.50
2019-05-13T17:36:26.353Z,0.60
2019-05-13T17:38:54.824Z,0.30
2019-05-13T17:41:23.233Z,0.53
2019-05-13T17:43:51.861Z,0.55
2019-05-13T17:46:21.881Z,0.65
2019-05-13T17:48:52.040Z,0.80
2019-05-13T17:51:22.550Z,0.82
2019-05-13T17:53:52.002Z,0.80
2019-05-13T17:56:21.688Z,0.70
2019-05-13T17:58:50.449Z,0.75
2019-05-13T18:01:21.088Z,0.90
2019-05-13T18:03:48.979Z,1.40
2019-05-13T18:06:17.373Z,1.12
2019-05-13T18:08:45.785Z,1.20
2019-05-13T18:11:14.191Z,1.60
2019-05-13T18:13:43.742Z,1.30
2019-05-13T18:16:12.525Z,1.10
2019-05-13T18:18:46.929Z,1.47
2019-05-13T18:21:11.947Z,1.12
2019-05-13T18:23:41.430Z,2.00
2019-05-13T18:26:11.832Z,1.80
2019-05-13T18:28:42.016Z,1.85
2019-05-13T18:31:12.087Z,2.60
2019-05-13T18:33:42.245Z,2.08
2019-05-13T18:36:13.496Z,1.65
2019-05-13T18:38:41.954Z,1.72
2019-05-13T18:41:12.036Z,3.05
2019-05-13T18:43:41.388Z,1.70
2019-05-13T18:46:12.172Z,1.00
2019-05-13T18:48:57.842Z,0.80
2019-05-13T18:51:11.804Z,0.80
2019-05-13T18:53:41.505Z,1.02
2019-05-13T18:56:12.270Z,0.75
2019-05-13T18:58:39.876Z,1.10
2019-05-13T19:01:08.302Z,0.90
2019-05-13T19:03:36.690Z,1.30
2019-05-13T19:06:07.189Z,0.90
2019-05-13T19:08:35.236Z,1.25
2019-05-13T19:11:03.320Z,0.98
2019-05-13T19:13:32.310Z,1.10
2019-05-13T19:16:02.409Z,1.05
2019-05-13T19:18:32.146Z,1.20
2019-05-13T19:21:01.894Z,0.72
2019-05-13T19:23:31.506Z,1.30
2019-05-13T19:26:01.942Z,1.40
2019-05-13T19:28:31.773Z,1.10
2019-05-13T19:31:02.230Z,1.20
2019-05-13T19:33:30.491Z,1.30
2019-05-13T19:36:01.149Z,1.00
2019-05-13T19:38:28.791Z,1.30
2019-05-13T19:40:56.898Z,1.10
2019-05-13T19:43:25.301Z,1.00
2019-05-13T19:45:53.693Z,1.17
2019-05-13T19:48:22.115Z,1.20
2019-05-13T19:50:52.091Z,1.10
2019-05-13T19:53:20.324Z,1.22
2019-05-13T19:55:48.740Z,1.20
2019-05-13T19:58:16.809Z,1.20
2019-05-13T20:00:45.219Z,1.40
2019-05-13T20:03:13.617Z,1.20
2019-05-13T20:05:42.028Z,1.30
2019-05-13T20:08:10.498Z,1.22
2019-05-13T20:10:38.952Z,1.30
2019-05-13T20:13:07.358Z,1.12
2019-05-13T20:15:35.797Z,1.77
2019-05-13T20:18:04.286Z,1.75
2019-05-13T20:20:32.765Z,1.50
2019-05-13T20:23:01.527Z,1.40
2019-05-13T20:25:31.208Z,1.87
2019-05-13T20:28:02.126Z,1.40
2019-05-13T20:30:29.536Z,1.92
2019-05-13T20:32:57.626Z,2.17
2019-05-13T20:35:26.036Z,2.30
2019-05-13T20:37:54.435Z,2.10
2019-05-13T20:40:22.845Z,2.02
2019-05-13T20:42:51.645Z,2.00
2019-05-13T20:45:22.433Z,1.70
2019-05-13T20:47:50.472Z,1.27
2019-05-13T20:50:21.514Z,1.12
2019-05-13T20:52:51.406Z,1.05
2019-05-13T20:55:21.792Z,1.22
2019-05-13T20:57:49.104Z,0.90
2019-05-13T21:00:17.566Z,1.30
2019-05-13T21:02:45.641Z,0.93
2019-05-13T21:05:14.168Z,1.10
2019-05-13T21:07:42.564Z,1.20
2019-05-13T21:10:12.174Z,1.40
2019-05-13T21:12:41.983Z,1.25
2019-05-13T21:15:12.875Z,1.62
2019-05-13T21:17:40.557Z,1.60
2019-05-13T21:20:21.450Z,1.70
2019-05-13T21:22:39.347Z,1.47
2019-05-13T21:25:08.176Z,1.75
2019-05-13T21:27:36.596Z,1.45
2019-05-13T21:30:06.800Z,1.40
2019-05-13T21:32:35.212Z,1.70
2019-05-13T21:35:04.244Z,1.25
2019-05-13T21:37:32.363Z,1.10
2019-05-13T21:40:00.833Z,1.40
2019-05-13T21:42:29.248Z,0.90
2019-05-13T21:44:57.640Z,1.15
2019-05-13T21:47:26.059Z,0.80
2019-05-13T21:49:54.120Z,0.62
2019-05-13T21:52:23.990Z,0.72
2019-05-13T21:54:52.724Z,0.82
2019-05-13T21:57:21.124Z,0.80
2019-05-13T21:59:51.429Z,0.82
2019-05-13T22:02:21.246Z,0.90
2019-05-13T22:04:49.144Z,0.80
2019-05-13T22:07:17.553Z,1.10
2019-05-13T22:09:45.955Z,0.90
2019-05-13T22:12:14.361Z,1.10
2019-05-13T22:14:42.447Z,0.80
2019-05-13T22:17:12.424Z,0.93
2019-05-13T22:19:41.995Z,1.20
2019-05-13T22:22:11.641Z,1.05
2019-05-13T22:24:41.817Z,1.80
2019-05-13T22:27:13.020Z,0.90
2019-05-13T22:29:41.466Z,1.15
2019-05-13T22:32:11.278Z,1.00
2019-05-13T22:34:41.763Z,0.93
2019-05-13T22:37:11.678Z,1.12
2019-05-13T22:39:41.913Z,0.90
2019-05-13T22:42:12.232Z,1.00
2019-05-13T22:44:41.764Z,1.00
2019-05-13T22:47:13.105Z,0.90
2019-05-13T22:49:40.566Z,1.12
2019-05-13T22:52:08.636Z,0.93
2019-05-13T22:54:36.712Z,0.70
2019-05-13T22:57:04.813Z,0.95
2019-05-13T22:59:33.231Z,1.10
2019-05-13T23:02:01.637Z,0.93
2019-05-13T23:04:31.449Z,0.90
2019-05-13T23:07:01.289Z,1.35
2019-05-13T23:09:32.157Z,1.00
2019-05-13T23:12:01.714Z,0.80
2019-05-13T23:14:30.477Z,0.93
2019-05-13T23:16:58.876Z,0.80
2019-05-13T23:19:26.953Z,1.05
2019-05-13T23:21:55.364Z,1.33
2019-05-13T23:24:23.941Z,1.10
2019-05-13T23:26:52.365Z,0.90
2019-05-13T23:29:21.408Z,1.03
2019-05-13T23:31:51.881Z,1.00
2019-05-13T23:34:22.160Z,0.70
2019-05-13T23:36:51.503Z,1.13
2019-05-13T23:39:21.581Z,1.10
2019-05-13T23:41:52.130Z,1.00
2019-05-13T23:44:27.163Z,0.90
2019-05-13T23:46:51.416Z,0.90
2019-05-13T23:49:21.122Z,1.10
2019-05-13T23:51:51.849Z,1.20
2019-05-13T23:54:21.310Z,0.97
2019-05-13T23:56:49.829Z,1.03
2019-05-13T23:59:18.253Z,1.10
